createdAt,value
2018-01-11T00:01:46.389Z,46.58
2018-01-11T00:04:15.434Z,49.75
2018-01-11T00:06:43.815Z,46.58
2018-01-11T00:09:13.788Z,49.47
2018-01-11T00:11:42.136Z,61.08
2018-01-11T00:14:11.442Z,50.83
2018-01-11T00:16:41.455Z,49.00
2018-01-11T00:19:10.654Z,50.72
2018-01-11T00:21:39.410Z,70.50
2018-01-11T00:24:08.276Z,53.78
2018-01-11T00:26:37.736Z,43.80
2018-01-11T00:29:07.015Z,39.42
2018-01-11T00:31:35.714Z,49.17
2018-01-11T00:34:04.056Z,45.17
2018-01-11T00:36:32.600Z,44.90
2018-01-11T00:39:02.910Z,38.40
2018-01-11T00:41:31.968Z,47.67
2018-01-11T00:44:01.519Z,44.88
2018-01-11T00:46:29.693Z,38.83
2018-01-11T00:48:57.958Z,46.90
2018-01-11T00:51:26.639Z,44.80
2018-01-11T00:53:55.922Z,48.83
2018-01-11T00:56:24.870Z,40.85
2018-01-11T00:58:52.901Z,30.65
2018-01-11T01:01:21.845Z,38.08
2018-01-11T01:03:50.909Z,37.42
2018-01-11T01:06:19.969Z,35.15
2018-01-11T01:08:49.484Z,36.63
2018-01-11T01:11:18.298Z,40.65
2018-01-11T01:13:46.732Z,37.85
2018-01-11T01:16:14.956Z,38.72
2018-01-11T01:18:43.808Z,41.17
2018-01-11T01:21:12.050Z,40.40
2018-01-11T01:23:41.325Z,42.78
2018-01-11T01:26:10.177Z,51.28
2018-01-11T01:28:38.957Z,50.25
2018-01-11T01:31:07.737Z,47.72
2018-01-11T01:33:36.630Z,51.53
2018-01-11T01:36:05.610Z,59.10
2018-01-11T01:38:35.191Z,54.20
2018-01-11T01:41:04.558Z,68.05
2018-01-11T01:43:33.619Z,67.45
2018-01-11T01:46:02.212Z,63.70
2018-01-11T01:48:30.946Z,70.68
2018-01-11T01:51:01.133Z,63.00
2018-01-11T01:53:29.812Z,57.67
2018-01-11T01:55:59.382Z,56.92
2018-01-11T01:58:28.826Z,64.70
2018-01-11T02:00:57.497Z,63.28
2018-01-11T02:03:26.389Z,56.28
2018-01-11T02:05:54.990Z,58.33
2018-01-11T02:08:24.425Z,57.42
2018-01-11T02:10:53.025Z,59.65
2018-01-11T02:13:22.240Z,64.55
2018-01-11T02:15:50.469Z,63.30
2018-01-11T02:18:19.494Z,59.20
2018-01-11T02:20:47.902Z,53.38
2018-01-11T02:23:17.444Z,52.80
2018-01-11T02:25:46.132Z,49.00
2018-01-11T02:28:15.133Z,46.45
2018-01-11T02:30:43.754Z,55.08
2018-01-11T02:33:12.425Z,53.38
2018-01-11T02:35:41.948Z,53.67
2018-01-11T02:38:10.692Z,58.72
2018-01-11T02:40:40.275Z,67.15
2018-01-11T02:43:08.736Z,59.38
2018-01-11T02:45:37.446Z,65.75
2018-01-11T02:48:06.993Z,58.47
2018-01-11T02:50:35.754Z,55.92
2018-01-11T02:53:04.698Z,59.30
2018-01-11T02:55:34.629Z,51.58
2018-01-11T02:58:03.371Z,55.55
2018-01-11T03:00:32.308Z,71.10
2018-01-11T03:03:01.072Z,87.93
2018-01-11T03:05:30.887Z,64.37
2018-01-11T03:07:59.567Z,56.30
2018-01-11T03:10:28.892Z,50.65
2018-01-11T03:12:58.094Z,47.90
2018-01-11T03:15:26.598Z,45.83
2018-01-11T03:17:55.962Z,53.45
2018-01-11T03:20:25.206Z,70.78
2018-01-11T03:22:54.166Z,61.10
2018-01-11T03:25:23.146Z,67.53
2018-01-11T03:27:52.294Z,75.90
2018-01-11T03:30:21.703Z,72.47
2018-01-11T03:32:52.393Z,63.95
2018-01-11T03:35:21.055Z,70.03
2018-01-11T03:37:49.368Z,74.47
2018-01-11T03:40:18.934Z,66.68
2018-01-11T03:42:47.174Z,64.82
2018-01-11T03:45:15.436Z,58.75
2018-01-11T03:47:43.676Z,85.70
2018-01-11T03:50:13.365Z,76.72
2018-01-11T03:52:42.934Z,87.82
2018-01-11T03:55:11.345Z,84.32
2018-01-11T03:57:41.252Z,101.60
2018-01-11T04:00:10.008Z,74.87
2018-01-11T04:02:38.255Z,75.10
2018-01-11T04:05:07.958Z,79.82
2018-01-11T04:07:36.534Z,73.25
2018-01-11T04:10:05.457Z,79.78
2018-01-11T04:12:34.782Z,86.18
2018-01-11T04:15:03.007Z,75.05
2018-01-11T04:17:31.745Z,67.82
2018-01-11T04:20:00.050Z,59.83
2018-01-11T04:22:28.314Z,71.97
2018-01-11T04:24:56.707Z,65.90
2018-01-11T04:27:26.346Z,67.35
2018-01-11T04:29:55.157Z,62.35
2018-01-11T04:32:23.967Z,50.50
2018-01-11T04:34:52.693Z,55.08
2018-01-11T04:37:22.111Z,56.50
2018-01-11T04:39:50.354Z,55.42
2018-01-11T04:42:19.040Z,57.38
2018-01-11T04:44:48.583Z,45.00
2018-01-11T04:47:16.724Z,52.05
2018-01-11T04:49:45.459Z,51.17
2018-01-11T04:52:15.012Z,79.43
2018-01-11T04:54:44.364Z,59.50
2018-01-11T04:57:12.587Z,69.78
2018-01-11T04:59:41.644Z,57.62
2018-01-11T05:02:10.144Z,58.58
2018-01-11T05:04:39.049Z,59.03
2018-01-11T05:07:08.097Z,56.50
2018-01-11T05:09:37.450Z,56.83
2018-01-11T05:12:07.497Z,58.63
2018-01-11T05:14:37.224Z,54.50
2018-01-11T05:17:05.858Z,57.83
2018-01-11T05:19:34.489Z,49.47
2018-01-11T05:22:04.480Z,58.30
2018-01-11T05:24:33.204Z,56.53
2018-01-11T05:27:03.081Z,67.78
2018-01-11T05:29:32.405Z,68.78
2018-01-11T05:32:02.870Z,63.25
2018-01-11T05:34:31.882Z,85.38
2018-01-11T05:37:01.065Z,138.18
2018-01-11T05:39:29.918Z,71.32
2018-01-11T05:41:58.917Z,69.87
2018-01-11T05:44:28.188Z,63.30
2018-01-11T05:46:56.749Z,61.13
2018-01-11T05:49:25.635Z,64.18
2018-01-11T05:51:55.027Z,55.30
2018-01-11T05:54:23.353Z,76.35
2018-01-11T05:56:52.168Z,71.05
2018-01-11T05:59:20.939Z,65.78
2018-01-11T06:01:50.402Z,69.62
2018-01-11T06:04:18.989Z,99.60
2018-01-11T06:06:47.889Z,71.62
2018-01-11T06:09:17.683Z,77.07
2018-01-11T06:11:45.885Z,79.62
2018-01-11T06:14:15.785Z,71.62
2018-01-11T06:16:44.432Z,63.10
2018-01-11T06:19:13.655Z,62.13
2018-01-11T06:21:41.859Z,62.03
2018-01-11T06:24:11.392Z,65.75
2018-01-11T06:26:40.339Z,58.72
2018-01-11T06:29:08.749Z,62.58
2018-01-11T06:31:37.650Z,54.08
2018-01-11T06:34:06.693Z,51.95
2018-01-11T06:36:36.343Z,54.13
2018-01-11T06:39:05.104Z,66.25
2018-01-11T06:41:35.021Z,52.17
2018-01-11T06:44:03.721Z,51.25
2018-01-11T06:46:32.635Z,52.67
2018-01-11T06:49:01.979Z,47.88
2018-01-11T06:51:30.608Z,42.20
2018-01-11T06:53:59.940Z,46.95
2018-01-11T06:56:28.013Z,49.15
2018-01-11T06:58:56.301Z,47.62
2018-01-11T07:01:25.390Z,50.97
2018-01-11T07:03:55.114Z,44.28
2018-01-11T07:06:24.217Z,51.00
2018-01-11T07:08:54.713Z,43.50
2018-01-11T07:11:23.207Z,43.83
2018-01-11T07:13:52.252Z,42.78
2018-01-11T07:16:21.413Z,43.50
2018-01-11T07:18:50.065Z,44.67
2018-01-11T07:21:18.245Z,42.20
2018-01-11T07:23:46.924Z,46.55
2018-01-11T07:26:15.579Z,43.03
2018-01-11T07:28:44.239Z,45.35
2018-01-11T07:31:12.962Z,46.80
2018-01-11T07:33:41.652Z,41.83
2018-01-11T07:36:10.596Z,57.62
2018-01-11T07:38:39.936Z,49.90
2018-01-11T07:41:09.336Z,48.75
2018-01-11T07:43:37.855Z,43.70
2018-01-11T07:46:06.760Z,41.25
2018-01-11T07:48:34.894Z,41.10
2018-01-11T07:51:04.574Z,43.55
2018-01-11T07:53:33.381Z,42.10
2018-01-11T07:56:02.480Z,46.08
2018-01-11T07:58:32.220Z,45.05
2018-01-11T08:01:01.798Z,45.92
2018-01-11T08:03:30.484Z,45.90
2018-01-11T08:05:59.096Z,35.95
2018-01-11T08:08:28.350Z,37.03
2018-01-11T08:10:58.140Z,35.55
2018-01-11T08:13:26.962Z,37.13
2018-01-11T08:15:56.870Z,36.08
2018-01-11T08:18:26.882Z,42.88
2018-01-11T08:20:55.876Z,41.78
2018-01-11T08:23:25.344Z,40.95
2018-01-11T08:25:54.448Z,36.80
2018-01-11T08:28:22.919Z,39.58
2018-01-11T08:30:51.896Z,35.80
2018-01-11T08:33:21.217Z,37.65
2018-01-11T08:35:50.068Z,41.10
2018-01-11T08:38:20.077Z,41.88
2018-01-11T08:40:48.486Z,35.95
2018-01-11T08:43:18.019Z,34.40
2018-01-11T08:45:47.710Z,38.40
2018-01-11T08:48:16.603Z,43.15
2018-01-11T08:50:45.766Z,38.72
2018-01-11T08:53:14.828Z,34.42
2018-01-11T08:55:43.932Z,43.35
2018-01-11T08:58:12.684Z,41.92
2018-01-11T09:00:41.868Z,38.88
2018-01-11T09:03:10.802Z,35.53
2018-01-11T09:05:39.774Z,43.20
2018-01-11T09:08:09.416Z,37.70
2018-01-11T09:10:38.410Z,34.43
2018-01-11T09:13:07.113Z,34.63
2018-01-11T09:15:36.836Z,39.23
2018-01-11T09:18:05.115Z,32.20
2018-01-11T09:20:34.711Z,33.23
2018-01-11T09:23:03.587Z,33.07
2018-01-11T09:25:32.368Z,35.93
2018-01-11T09:28:01.523Z,35.80
2018-01-11T09:30:30.610Z,41.30
2018-01-11T09:33:00.216Z,39.17
2018-01-11T09:35:29.488Z,31.33
2018-01-11T09:37:57.991Z,30.20
2018-01-11T09:40:26.271Z,28.07
2018-01-11T09:42:55.732Z,30.80
2018-01-11T09:45:23.925Z,35.30
2018-01-11T09:47:52.861Z,37.80
2018-01-11T09:50:21.052Z,33.40
2018-01-11T09:52:49.574Z,33.57
2018-01-11T09:55:19.290Z,28.20
2018-01-11T09:57:48.939Z,31.43
2018-01-11T10:00:18.190Z,30.57
2018-01-11T10:02:50.258Z,36.27
2018-01-11T10:05:19.640Z,37.23
2018-01-11T10:07:49.391Z,35.23
2018-01-11T10:10:19.045Z,32.43
2018-01-11T10:12:48.082Z,33.27
2018-01-11T10:15:17.473Z,34.37
2018-01-11T10:17:46.457Z,38.30
2018-01-11T10:20:15.178Z,35.40
2018-01-11T10:22:43.853Z,40.90
2018-01-11T10:25:13.740Z,40.73
2018-01-11T10:27:43.297Z,33.87
2018-01-11T10:30:12.346Z,34.73
2018-01-11T10:32:41.846Z,34.53
2018-01-11T10:35:17.005Z,32.67
2018-01-11T10:37:46.684Z,29.23
2018-01-11T10:40:15.881Z,28.97
2018-01-11T10:42:45.384Z,26.30
2018-01-11T10:45:13.562Z,37.43
2018-01-11T10:47:43.842Z,32.83
2018-01-11T10:50:12.524Z,28.97
2018-01-11T10:52:41.444Z,33.77
2018-01-11T10:55:10.640Z,35.23
2018-01-11T10:57:39.431Z,33.90
2018-01-11T11:00:08.528Z,33.67
2018-01-11T11:02:39.100Z,36.00
2018-01-11T11:05:08.002Z,36.27
2018-01-11T11:07:37.648Z,35.77
2018-01-11T11:10:06.960Z,36.20
2018-01-11T11:12:36.096Z,38.70
2018-01-11T11:15:04.827Z,34.07
2018-01-11T11:17:34.623Z,34.90
2018-01-11T11:20:02.896Z,32.23
2018-01-11T11:22:32.467Z,32.90
2018-01-11T11:25:01.698Z,37.20
2018-01-11T11:27:30.446Z,39.40
2018-01-11T11:29:59.427Z,36.67
2018-01-11T11:32:28.801Z,33.93
2018-01-11T11:34:58.155Z,40.23
2018-01-11T11:37:27.458Z,35.83
2018-01-11T11:39:56.952Z,34.73
2018-01-11T11:42:25.403Z,37.63
2018-01-11T11:44:54.640Z,38.67
2018-01-11T11:47:23.675Z,38.63
2018-01-11T11:49:52.316Z,37.03
2018-01-11T11:52:22.089Z,36.60
2018-01-11T11:54:50.299Z,34.90
2018-01-11T11:57:20.060Z,35.37
2018-01-11T11:59:50.088Z,37.20
2018-01-11T12:02:18.763Z,33.40
2018-01-11T12:04:48.214Z,36.73
2018-01-11T12:07:16.976Z,34.00
2018-01-11T12:09:45.810Z,38.10
2018-01-11T12:12:15.053Z,45.27
2018-01-11T12:14:43.469Z,30.53
2018-01-11T12:17:12.072Z,39.40
2018-01-11T12:19:41.412Z,38.40
2018-01-11T12:22:09.841Z,39.50
2018-01-11T12:24:38.991Z,38.17
2018-01-11T12:27:07.542Z,38.37
2018-01-11T12:29:36.494Z,33.47
2018-01-11T12:32:05.387Z,35.37
2018-01-11T12:34:34.472Z,49.63
2018-01-11T12:37:03.048Z,39.17
2018-01-11T12:39:31.460Z,34.33
2018-01-11T12:42:00.668Z,34.57
2018-01-11T12:44:29.622Z,38.17
2018-01-11T12:46:58.725Z,33.53
2018-01-11T12:49:27.605Z,34.47
2018-01-11T12:51:55.901Z,30.87
2018-01-11T12:54:24.272Z,36.87
2018-01-11T12:56:54.420Z,34.80
2018-01-11T12:59:23.757Z,35.40
2018-01-11T13:01:52.281Z,36.70
2018-01-11T13:04:21.095Z,30.50
2018-01-11T13:06:49.764Z,31.13
2018-01-11T13:09:18.494Z,30.97
2018-01-11T13:11:47.183Z,34.43
2018-01-11T13:14:16.549Z,29.23
2018-01-11T13:16:44.739Z,33.83
2018-01-11T13:19:13.766Z,30.13
2018-01-11T13:21:41.982Z,32.80
2018-01-11T13:24:11.777Z,32.60
2018-01-11T13:26:41.190Z,37.37
2018-01-11T13:29:10.454Z,32.10
2018-01-11T13:31:39.043Z,31.07
2018-01-11T13:34:08.168Z,29.23
2018-01-11T13:36:37.336Z,30.30
2018-01-11T13:39:06.995Z,28.60
2018-01-11T13:41:35.995Z,27.50
2018-01-11T13:44:04.559Z,29.13
2018-01-11T13:46:33.571Z,27.60
2018-01-11T13:49:02.991Z,29.90
2018-01-11T13:51:33.552Z,27.37
2018-01-11T13:54:02.424Z,29.13
2018-01-11T13:56:32.066Z,33.80
2018-01-11T13:59:01.335Z,31.43
2018-01-11T14:01:31.389Z,27.70
2018-01-11T14:03:59.647Z,29.23
2018-01-11T14:06:29.834Z,32.13
2018-01-11T14:08:58.027Z,30.77
2018-01-11T14:11:27.008Z,35.07
2018-01-11T14:13:56.307Z,32.57
2018-01-11T14:16:25.864Z,28.60
2018-01-11T14:18:56.518Z,26.23
2018-01-11T14:21:26.562Z,31.00
2018-01-11T14:23:56.587Z,25.00
2018-01-11T14:26:25.467Z,24.10
2018-01-11T14:28:54.444Z,26.93
2018-01-11T14:31:23.765Z,26.60
2018-01-11T14:33:53.166Z,25.97
2018-01-11T14:36:21.428Z,30.13
2018-01-11T14:38:50.509Z,25.20
2018-01-11T14:41:19.964Z,20.93
2018-01-11T14:43:48.323Z,21.07
2018-01-11T14:46:17.104Z,33.20
2018-01-11T14:48:47.078Z,28.23
2018-01-11T14:51:15.743Z,30.33
2018-01-11T14:53:44.726Z,30.33
2018-01-11T14:56:13.665Z,30.20
2018-01-11T14:58:42.683Z,30.30
2018-01-11T15:01:11.878Z,35.17
2018-01-11T15:03:40.417Z,29.47
2018-01-11T15:06:10.415Z,32.67
2018-01-11T15:08:39.218Z,34.57
2018-01-11T15:11:08.998Z,28.10
2018-01-11T15:13:37.873Z,34.60
2018-01-11T15:16:07.924Z,33.17
2018-01-11T15:18:36.846Z,40.13
2018-01-11T15:21:05.775Z,28.47
2018-01-11T15:23:34.502Z,31.23
2018-01-11T15:26:03.492Z,30.57
2018-01-11T15:28:33.818Z,31.37
2018-01-11T15:31:03.927Z,34.63
2018-01-11T15:33:32.546Z,34.73
2018-01-11T15:51:24.465Z,43.30
2018-01-11T15:53:53.079Z,40.90
2018-01-11T15:56:21.707Z,43.85
2018-01-11T15:58:50.703Z,42.33
2018-01-11T16:01:20.396Z,42.00
2018-01-11T16:03:49.391Z,36.30
2018-01-11T16:06:18.486Z,33.27
2018-01-11T16:08:47.923Z,33.00
2018-01-11T16:11:16.720Z,38.33
2018-01-11T16:13:45.443Z,53.70
2018-01-11T16:16:13.754Z,47.40
2018-01-11T16:18:44.506Z,33.40
2018-01-11T16:21:13.437Z,47.13
2018-01-11T16:23:42.119Z,44.97
2018-01-11T16:26:11.098Z,44.37
2018-01-11T16:28:39.836Z,41.23
2018-01-11T16:31:09.283Z,34.00
2018-01-11T16:33:38.185Z,35.70
2018-01-11T16:36:07.998Z,39.27
2018-01-11T16:38:37.547Z,40.57
2018-01-11T16:41:05.812Z,34.13
2018-01-11T16:43:34.514Z,45.00
2018-01-11T16:46:03.780Z,40.77
2018-01-11T16:48:32.740Z,40.17
2018-01-11T16:51:01.462Z,41.00
2018-01-11T16:53:31.142Z,44.20
2018-01-11T16:55:59.338Z,46.67
2018-01-11T16:58:28.388Z,49.17
2018-01-11T17:00:57.931Z,40.40
2018-01-11T17:03:26.913Z,44.30
2018-01-11T17:05:55.746Z,45.37
2018-01-11T17:08:25.182Z,51.53
2018-01-11T17:10:54.301Z,43.80
2018-01-11T17:13:23.923Z,42.00
2018-01-11T17:15:52.458Z,49.43
2018-01-11T17:18:21.924Z,49.50
2018-01-11T17:20:50.473Z,55.53
2018-01-11T17:23:18.966Z,68.53
2018-01-11T17:25:48.411Z,65.50
2018-01-11T17:28:16.861Z,43.17
2018-01-11T17:30:46.004Z,52.53
2018-01-11T17:33:15.089Z,43.13
2018-01-11T17:35:43.198Z,46.20
2018-01-11T17:38:11.990Z,41.33
2018-01-11T17:40:41.490Z,35.80
2018-01-11T17:43:12.395Z,38.80
2018-01-11T17:45:41.061Z,38.73
2018-01-11T17:48:10.080Z,45.40
2018-01-11T17:50:39.017Z,40.97
2018-01-11T17:53:08.011Z,38.10
2018-01-11T17:55:37.134Z,45.37
2018-01-11T17:58:06.946Z,48.00
2018-01-11T18:00:36.091Z,46.53
2018-01-11T18:03:04.944Z,52.80
2018-01-11T18:05:33.405Z,48.00
2018-01-11T18:08:02.292Z,44.70
2018-01-11T18:10:31.231Z,49.40
2018-01-11T18:13:00.258Z,48.30
2018-01-11T18:15:29.638Z,45.10
2018-01-11T18:17:57.971Z,56.50
2018-01-11T18:20:26.925Z,52.30
2018-01-11T18:22:55.601Z,55.10
2018-01-11T18:25:23.814Z,54.37
2018-01-11T18:27:53.728Z,54.90
2018-01-11T18:30:23.910Z,51.92
2018-01-11T18:32:52.548Z,58.87
2018-01-11T18:35:23.107Z,51.95
2018-01-11T18:37:53.185Z,54.25
2018-01-11T18:40:21.389Z,68.05
2018-01-11T18:42:50.660Z,55.75
2018-01-11T18:45:19.423Z,56.25
2018-01-11T18:47:48.123Z,60.10
2018-01-11T18:50:16.975Z,64.12
2018-01-11T18:52:45.994Z,69.55
2018-01-11T18:55:15.406Z,74.53
2018-01-11T18:57:43.714Z,68.07
2018-01-11T19:00:14.096Z,63.60
2018-01-11T19:02:42.296Z,66.87
2018-01-11T19:05:10.942Z,65.05
2018-01-11T19:07:40.488Z,70.85
2018-01-11T19:10:10.553Z,73.03
2018-01-11T19:12:39.563Z,54.33
2018-01-11T19:15:08.050Z,49.15
2018-01-11T19:17:37.395Z,62.90
2018-01-11T19:20:07.686Z,58.47
2018-01-11T19:22:36.699Z,60.60
2018-01-11T19:25:06.295Z,58.70
2018-01-11T19:27:35.250Z,58.50
2018-01-11T19:30:03.961Z,53.08
2018-01-11T19:32:32.855Z,56.53
2018-01-11T19:35:02.324Z,62.17
2018-01-11T19:37:31.272Z,53.95
2018-01-11T19:39:59.930Z,54.40
2018-01-11T19:42:28.469Z,55.05
2018-01-11T19:44:56.718Z,50.70
2018-01-11T19:47:25.739Z,44.97
2018-01-11T19:49:55.252Z,52.05
2018-01-11T19:52:23.881Z,52.30
2018-01-11T19:54:53.851Z,48.05
2018-01-11T20:12:46.044Z,52.17
2018-01-11T20:15:15.363Z,45.75
2018-01-11T20:17:44.284Z,44.67
2018-01-11T20:20:14.312Z,44.05
2018-01-11T20:22:43.445Z,52.42
2018-01-11T20:25:12.404Z,68.93
2018-01-11T20:27:41.154Z,61.40
2018-01-11T20:30:09.781Z,66.40
2018-01-11T20:32:39.247Z,66.93
2018-01-11T20:35:07.428Z,59.17
2018-01-11T20:37:37.121Z,51.55
2018-01-11T20:40:05.811Z,52.42
2018-01-11T20:42:34.460Z,44.30
2018-01-11T20:45:03.306Z,45.53
2018-01-11T20:47:31.848Z,50.95
2018-01-11T20:50:00.541Z,43.22
2018-01-11T20:52:29.142Z,43.47
2018-01-11T20:54:59.050Z,54.22
2018-01-11T20:57:28.616Z,51.35
2018-01-11T20:59:57.653Z,47.88
2018-01-11T21:02:27.024Z,49.10
2018-01-11T21:04:55.925Z,46.30
2018-01-11T21:07:24.538Z,52.00
2018-01-11T21:09:53.600Z,51.00
2018-01-11T21:12:22.177Z,43.45
2018-01-11T21:14:50.784Z,40.10
2018-01-11T21:17:19.144Z,43.00
2018-01-11T21:19:48.089Z,47.03
2018-01-11T21:22:17.691Z,43.53
2018-01-11T21:24:46.069Z,40.57
2018-01-11T21:27:15.381Z,43.95
2018-01-11T21:29:43.944Z,47.65
2018-01-11T21:32:12.368Z,43.95
2018-01-11T21:34:42.110Z,43.23
2018-01-11T21:37:10.504Z,40.80
2018-01-11T21:39:39.220Z,39.00
2018-01-11T21:42:07.456Z,39.70
2018-01-11T21:44:35.898Z,38.92
2018-01-11T21:47:03.685Z,39.28
2018-01-11T21:49:32.043Z,36.33
2018-01-11T21:52:00.699Z,40.63
2018-01-11T21:54:30.035Z,44.15
2018-01-11T21:56:59.478Z,45.20
2018-01-11T21:59:27.894Z,48.10
2018-01-11T22:01:58.205Z,42.22
2018-01-11T22:04:27.421Z,44.42
2018-01-11T22:06:56.543Z,42.45
2018-01-11T22:09:25.065Z,36.78
2018-01-11T22:11:54.593Z,44.08
2018-01-11T22:14:23.266Z,45.50
2018-01-11T22:16:51.987Z,46.95
2018-01-11T22:19:20.240Z,45.85
2018-01-11T22:21:49.661Z,42.22
2018-01-11T22:24:18.516Z,41.17
2018-01-11T22:26:47.233Z,36.40
2018-01-11T22:29:15.725Z,45.53
2018-01-11T22:31:44.260Z,42.92
2018-01-11T22:34:13.330Z,43.27
2018-01-11T22:36:41.548Z,53.27
2018-01-11T22:39:10.607Z,45.70
2018-01-11T22:41:39.522Z,47.42
2018-01-11T22:44:09.191Z,46.65
2018-01-11T22:46:38.410Z,44.75
2018-01-11T22:49:07.106Z,48.97
2018-01-11T22:51:36.220Z,52.50
2018-01-11T22:54:05.093Z,43.00
2018-01-11T22:56:34.797Z,48.35
2018-01-11T22:59:03.670Z,42.75
2018-01-11T23:01:32.376Z,39.15
2018-01-11T23:04:00.921Z,45.03
2018-01-11T23:06:29.121Z,42.38
2018-01-11T23:08:58.173Z,53.13
2018-01-11T23:11:26.935Z,43.90
2018-01-11T23:13:55.836Z,46.13
2018-01-11T23:16:24.604Z,42.67
2018-01-11T23:18:53.772Z,39.03
2018-01-11T23:21:22.455Z,44.10
2018-01-11T23:23:51.624Z,41.10
2018-01-11T23:26:20.454Z,45.25
2018-01-11T23:28:49.492Z,45.65
2018-01-11T23:31:18.070Z,35.23
2018-01-11T23:33:47.130Z,39.15
2018-01-11T23:36:16.116Z,40.72
2018-01-11T23:38:45.312Z,41.00
2018-01-11T23:41:13.875Z,36.43
2018-01-11T23:43:42.086Z,35.80
2018-01-11T23:46:10.334Z,34.65
2018-01-11T23:48:38.648Z,44.58
2018-01-11T23:51:06.772Z,43.50
2018-01-11T23:53:35.118Z,44.45
2018-01-11T23:56:04.726Z,42.88
2018-01-11T23:58:33.464Z,37.65
